• vieta
  • image
  • image
  • image
mod_vvisit_countermod_vvisit_countermod_vvisit_countermod_vvisit_countermod_vvisit_countermod_vvisit_counter
mod_vvisit_counterŠiandien434
mod_vvisit_counterVakar1245
mod_vvisit_counterŠią savaitę4024
mod_vvisit_counterPraėjusią savaitę5826
mod_vvisit_counterŠį mėnesį17586
mod_vvisit_counterPraėjusį mėnesį22413
mod_vvisit_counterViso848227

Mes turime: 39 svečius, 1 bots online
Jūsų IP: 54.221.17.234
 , 
Šiandien: Vas 22, 2018
Oro uostas / Įmonė

Apie įmonę

 

Savivaldybės įmonė Šiaulių oro uostas.

2003 m. lapkričio mėn. Šiaulių miesto savivaldybės tarybos sprendimu įsteigta Savivaldybės įmonė Šiaulių oro uostas, kuriai LR Vyriausybės nutarimu suteikta teisė aptarnauti civilinį susisiekimą kariniame Šiaulių aerodrome.

Įmonė yra ribotos civilinės atsakomybės viešasis juridinis asmuo.

Įmonės pagrindinė veikla – oro uosto eksploatavimas ir oro transporto paslaugos.

Svarbiausi veiklos uždaviniai – teikti viešąsias keleivių ir krovinių vežimo oro transportu paslaugas.

Įmonėje dirba 21 darbuotojas.


Įmonės struktūra:

 

Šiandien

Ketvirtadienis, 22 Vasaris 2018

Orų prognozė aviacijai

[source: ADDS]
METAR
EYSA 221220Z 06005KT CAVOK M10/M12 Q1030 R32R/19//95 R32L/19//95 BLU NOSIG =
TAF
TAF COR EYSA 221114Z 2212/2221 VRB05KT 7000 SCT025 BECMG 2217/2219 NSC =
SR / SS: 05:33 / 15:49 UTC (EYSA 2018-02-22)

Paieška

Lankytojai

Mes turime 40 svečius online

tic logo lt